Saint Regis, Montana
Current Conditions -  °F | °C
As of 3:53 PM on Friday 28 Nov 2014 (Local Time) from KMLP Reporting Station
Moderate Rain Moderate Rain  
Wind Chill: 25°   Ceiling: 500
Heat Index: 34°   Visibility: 1mi
Dew Point: 33°   Wind: 14mph
Humidity: 96%   Direction: 210°SSW
Pressure: 29.39"   Gusts: 30mph
Location:  47.3°N, 115.1°W
Report Text: KMLP 282253Z AUTO 21012G26KT 160V270 1SM RA BR OVC005 01/01 A2939 RMK AO2 PK WND 18031/2234 RAE14B24E31B53SNB14E53 SLP909 P0007 T00110006
Loading
Personal Weather Stations






























Interactive Weather Map New forecast layout! Learn more

10-Day Weather Forecast

Advertisements
Track Severe Weather on mobile